Time;durP1;ratioP1;P1;durP2;ratioP2;P2;SDS_P1;SDS_P2;PMS_P1;PMS_P2;Temp;Humidity;BMP_temperature;BMP_pressure;BME280_temperature;BME280_humidity;BME280_pressure;Samples;Min_cycle;Max_cycle;Signal;HPM_P1;HPM_P2
2021/12/18 00:01:50;;;;;;;61.70;40.10;;;7.10;99.90;;;;;;5023606;28;20471;-69
2021/12/18 00:04:17;;;;;;;52.47;39.83;;;7.10;99.90;;;;;;5020590;28;20470;-70
2021/12/18 00:06:44;;;;;;;50.70;37.30;;;7.20;99.90;;;;;;5021974;28;20897;-70
2021/12/18 00:09:11;;;;;;;48.40;37.27;;;7.20;99.90;;;;;;5019128;28;20453;-70
2021/12/18 00:11:40;;;;;;;55.53;40.17;;;7.20;99.90;;;;;;5021955;28;20832;-68
2021/12/18 00:14:07;;;;;;;54.77;39.33;;;7.30;99.90;;;;;;5019239;28;20456;-69
2021/12/18 00:16:34;;;;;;;63.70;41.07;;;7.30;99.90;;;;;;5026075;28;20508;-70
2021/12/18 00:19:00;;;;;;;62.37;40.40;;;7.20;99.90;;;;;;5025432;28;21050;-69
2021/12/18 00:21:28;;;;;;;65.50;43.60;;;7.20;99.90;;;;;;5025363;28;20547;-68
2021/12/18 00:23:55;;;;;;;62.63;41.50;;;7.20;99.90;;;;;;5019680;28;20468;-71
2021/12/18 00:26:22;;;;;;;58.53;41.30;;;7.20;99.90;;;;;;5017231;28;20465;-69
2021/12/18 00:28:50;;;;;;;57.63;40.03;;;7.30;99.90;;;;;;5021966;28;20934;-69
2021/12/18 00:31:17;;;;;;;68.03;42.30;;;7.30;99.90;;;;;;5022733;28;20522;-68
2021/12/18 00:33:44;;;;;;;65.80;40.27;;;7.30;99.90;;;;;;5026173;28;20460;-68
2021/12/18 00:36:11;;;;;;;69.27;43.10;;;7.30;99.90;;;;;;5026385;28;20483;-68
2021/12/18 00:38:39;;;;;;;69.53;42.87;;;7.30;99.90;;;;;;5018262;28;20465;-68
2021/12/18 00:41:16;;;;;;;64.50;41.43;;;7.40;99.90;;;;;;5025128;28;20468;-68
2021/12/18 00:46:27;;;;;;;72.47;42.40;;;7.30;99.90;;;;;;5015839;28;20479;-68
2021/12/18 00:48:54;;;;;;;84.30;43.90;;;7.30;99.90;;;;;;5023022;28;20468;-68
2021/12/18 00:51:21;;;;;;;65.07;41.53;;;7.30;99.90;;;;;;5019807;28;20465;-70
2021/12/18 00:53:48;;;;;;;70.57;43.00;;;7.30;99.90;;;;;;5023503;28;20489;-71
2021/12/18 00:56:15;;;;;;;63.80;40.43;;;7.40;99.90;;;;;;5017666;28;20503;-70
2021/12/18 00:58:42;;;;;;;67.50;43.00;;;7.40;99.90;;;;;;5024852;28;20550;-71
2021/12/18 01:01:10;;;;;;;71.63;42.87;;;7.50;99.90;;;;;;5022608;28;20472;-68
2021/12/18 01:03:40;;;;;;;72.70;42.20;;;7.50;99.90;;;;;;5015221;28;20463;-71
2021/12/18 01:06:07;;;;;;;76.57;41.10;;;7.50;99.90;;;;;;5023405;28;20488;-71
2021/12/18 01:08:34;;;;;;;78.07;44.63;;;7.60;99.90;;;;;;5025502;28;20461;-71
2021/12/18 01:11:24;;;;;;;79.30;43.10;;;7.60;99.90;;;;;;5023164;28;20856;-71
2021/12/18 01:14:05;;;;;;;72.73;43.73;;;7.50;99.90;;;;;;5024028;28;20457;-69
2021/12/18 01:16:42;;;;;;;70.63;43.40;;;7.50;99.90;;;;;;5024608;28;20557;-71
2021/12/18 01:24:38;;;;;;;65.50;42.13;;;7.70;99.90;;;;;;5020695;28;20519;-68
2021/12/18 01:27:05;;;;;;;73.90;43.63;;;7.70;99.90;;;;;;5024712;28;20472;-69
2021/12/18 01:29:32;;;;;;;67.00;40.87;;;7.70;99.90;;;;;;5026462;28;20476;-70
2021/12/18 01:31:59;;;;;;;65.40;41.37;;;7.60;99.90;;;;;;5024661;28;20468;-72
2021/12/18 01:34:27;;;;;;;70.00;41.10;;;7.60;99.90;;;;;;5019708;28;20461;-68
2021/12/18 01:36:54;;;;;;;64.00;41.70;;;7.70;99.90;;;;;;5022482;28;20488;-71
2021/12/18 01:39:21;;;;;;;67.90;38.83;;;7.70;99.90;;;;;;5018319;28;20533;-68
2021/12/18 01:42:03;;;;;;;67.33;41.80;;;7.50;99.90;;;;;;5023984;28;20460;-69
2021/12/18 01:44:51;;;;;;;66.57;40.73;;;7.50;99.90;;;;;;5019840;28;20492;-68
2021/12/18 01:52:54;;;;;;;76.90;41.83;;;7.70;99.90;;;;;;5022881;28;20487;-68
2021/12/18 01:55:21;;;;;;;60.00;37.50;;;7.70;99.90;;;;;;5023304;28;20490;-70
2021/12/18 01:57:48;;;;;;;69.90;39.80;;;7.70;99.90;;;;;;5023638;28;20470;-72
2021/12/18 02:00:17;;;;;;;69.17;38.40;;;7.70;99.90;;;;;;5022852;28;20978;-68
2021/12/18 02:02:44;;;;;;;69.33;38.40;;;7.70;99.90;;;;;;5022746;28;20552;-68
2021/12/18 02:05:12;;;;;;;58.77;37.43;;;7.70;99.90;;;;;;5025909;28;20461;-70
2021/12/18 02:07:41;;;;;;;66.10;38.00;;;7.70;99.90;;;;;;5024204;28;20464;-72
2021/12/18 02:10:15;;;;;;;64.07;37.00;;;7.70;99.90;;;;;;5016465;28;20472;-68
2021/12/18 02:12:48;;;;;;;62.23;38.07;;;7.70;99.90;;;;;;5024295;28;20491;-68
2021/12/18 02:20:47;;;;;;;65.67;36.80;;;7.70;99.90;;;;;;5022041;28;20480;-68
2021/12/18 02:23:15;;;;;;;60.93;36.77;;;7.70;99.90;;;;;;5020422;28;20457;-68
2021/12/18 02:25:42;;;;;;;57.20;35.00;;;7.80;99.90;;;;;;5024321;28;20494;-71
2021/12/18 02:28:15;;;;;;;53.67;33.23;;;7.90;99.90;;;;;;5018331;28;20461;-69
2021/12/18 02:30:43;;;;;;;62.87;36.47;;;7.80;99.90;;;;;;5024672;28;20453;-70
2021/12/18 02:33:10;;;;;;;51.10;32.30;;;7.80;99.90;;;;;;5021477;28;20980;-69
2021/12/18 02:35:44;;;;;;;49.73;30.87;;;7.80;99.90;;;;;;5022084;28;20504;-70
2021/12/18 02:38:17;;;;;;;47.97;31.10;;;7.70;99.90;;;;;;5024718;28;20946;-71
2021/12/18 02:43:26;;;;;;;53.13;32.13;;;7.80;99.90;;;;;;5019266;28;20466;-69
2021/12/18 02:45:58;;;;;;;58.53;32.30;;;7.80;99.90;;;;;;5023464;28;20499;-70
2021/12/18 02:48:26;;;;;;;69.10;32.73;;;7.70;99.90;;;;;;5022502;28;20514;-70
2021/12/18 02:50:52;;;;;;;53.93;32.00;;;7.70;99.90;;;;;;5025039;28;20926;-68
2021/12/18 02:53:20;;;;;;;54.93;32.23;;;7.70;99.90;;;;;;5016402;28;20507;-68
2021/12/18 02:55:54;;;;;;;50.23;32.73;;;7.70;99.90;;;;;;5018818;28;20496;-68
2021/12/18 02:58:21;;;;;;;51.53;32.93;;;7.70;99.90;;;;;;5016603;28;20492;-68
2021/12/18 03:00:48;;;;;;;55.57;31.50;;;7.70;99.90;;;;;;5019777;28;20469;-68
2021/12/18 03:03:16;;;;;;;63.33;33.00;;;7.70;99.90;;;;;;5019752;28;20819;-69
2021/12/18 03:05:50;;;;;;;63.00;35.93;;;7.70;99.90;;;;;;5023496;28;21459;-69
2021/12/18 03:08:32;;;;;;;84.73;34.63;;;7.70;99.90;;;;;;5028340;28;20456;-70
2021/12/18 03:24:54;;;;;;;59.50;34.33;;;8.10;99.90;;;;;;5017326;28;20496;-70
2021/12/18 03:27:22;;;;;;;60.83;34.10;;;8.10;99.90;;;;;;5016415;28;20504;-68
2021/12/18 03:29:49;;;;;;;66.30;36.70;;;8.10;99.90;;;;;;5020144;28;20832;-69
2021/12/18 03:32:17;;;;;;;64.50;33.20;;;8.10;99.90;;;;;;5016952;28;20471;-70
2021/12/18 03:34:44;;;;;;;67.37;35.90;;;8.10;99.90;;;;;;5022116;28;20459;-71
2021/12/18 03:37:11;;;;;;;59.30;35.20;;;8.10;99.90;;;;;;5019285;28;20484;-69
2021/12/18 03:39:39;;;;;;;63.63;32.90;;;8.10;99.90;;;;;;5021570;28;20977;-69
2021/12/18 03:42:07;;;;;;;59.63;33.43;;;8.10;99.90;;;;;;5022439;28;20445;-68
2021/12/18 03:44:36;;;;;;;64.80;34.10;;;8.30;99.90;;;;;;5025935;28;20563;-68
2021/12/18 03:47:04;;;;;;;66.40;35.60;;;8.30;99.90;;;;;;5024980;28;20476;-68
2021/12/18 03:49:31;;;;;;;61.93;34.17;;;8.00;99.90;;;;;;5020931;28;20460;-70
2021/12/18 03:51:58;;;;;;;65.93;34.83;;;8.00;99.90;;;;;;5025561;28;20563;-72
2021/12/18 03:54:24;;;;;;;65.70;36.23;;;8.00;99.90;;;;;;5023804;28;20520;-71
2021/12/18 03:56:52;;;;;;;76.13;36.20;;;8.00;99.90;;;;;;5026290;28;20496;-71
2021/12/18 03:59:19;;;;;;;73.70;36.33;;;8.10;99.90;;;;;;5020525;28;20472;-68
2021/12/18 04:01:47;;;;;;;67.60;35.87;;;8.20;99.90;;;;;;5024058;28;20457;-71
2021/12/18 04:04:14;;;;;;;65.80;34.40;;;8.30;99.90;;;;;;5022082;28;21143;-68
2021/12/18 04:06:42;;;;;;;61.43;33.90;;;8.30;99.90;;;;;;5020555;28;20467;-69
2021/12/18 04:09:11;;;;;;;58.87;33.90;;;8.40;99.90;;;;;;5026256;28;20546;-69
2021/12/18 04:11:38;;;;;;;58.37;36.00;;;8.40;99.90;;;;;;5024266;28;20464;-69
2021/12/18 04:14:05;;;;;;;70.07;33.80;;;8.50;99.90;;;;;;5021783;28;20464;-69
2021/12/18 04:16:32;;;;;;;53.97;33.77;;;8.40;99.90;;;;;;5027130;28;20496;-68
2021/12/18 04:19:01;;;;;;;80.07;36.10;;;8.50;99.90;;;;;;5024276;28;20461;-69
2021/12/18 04:21:29;;;;;;;58.30;34.30;;;8.40;99.90;;;;;;5020589;28;20465;-72
2021/12/18 04:23:56;;;;;;;64.70;34.07;;;8.40;99.90;;;;;;5019911;28;20468;-69
2021/12/18 04:26:23;;;;;;;57.50;33.20;;;8.40;99.90;;;;;;5021890;28;20473;-69
2021/12/18 04:28:50;;;;;;;73.23;34.70;;;8.40;99.90;;;;;;5021717;28;20523;-68
2021/12/18 04:31:17;;;;;;;59.70;33.97;;;8.30;99.90;;;;;;5027504;28;20484;-72
2021/12/18 04:33:44;;;;;;;60.70;35.57;;;8.10;99.90;;;;;;5023783;28;20466;-70
2021/12/18 04:36:12;;;;;;;62.13;33.00;;;8.00;99.90;;;;;;5020949;28;20987;-72
2021/12/18 04:38:39;;;;;;;71.53;36.03;;;8.00;99.90;;;;;;5018830;28;20472;-71
2021/12/18 04:41:06;;;;;;;70.77;36.17;;;8.00;99.90;;;;;;5021703;28;20851;-69
2021/12/18 04:43:33;;;;;;;58.60;33.03;;;8.20;99.90;;;;;;5025172;28;20469;-68
2021/12/18 04:46:00;;;;;;;60.90;33.73;;;8.20;99.90;;;;;;5023815;28;20518;-68
2021/12/18 04:48:27;;;;;;;60.20;35.67;;;8.20;99.90;;;;;;5020158;28;20472;-68
2021/12/18 04:50:55;;;;;;;53.20;33.00;;;8.20;99.90;;;;;;5021008;28;20907;-69
2021/12/18 04:53:23;;;;;;;62.83;33.23;;;8.30;99.90;;;;;;5023281;28;20559;-69
2021/12/18 04:55:50;;;;;;;72.20;36.00;;;8.20;99.90;;;;;;5023522;28;20461;-68
2021/12/18 04:58:17;;;;;;;66.90;33.70;;;8.30;99.90;;;;;;5018648;28;20552;-68
2021/12/18 05:00:47;;;;;;;73.50;34.97;;;8.30;99.90;;;;;;5023623;28;20472;-69
2021/12/18 05:03:16;;;;;;;68.00;35.63;;;8.20;99.90;;;;;;5024275;28;20469;-68
2021/12/18 05:05:43;;;;;;;63.23;33.83;;;8.30;99.90;;;;;;5018743;28;20528;-69
2021/12/18 05:08:10;;;;;;;58.70;33.70;;;8.30;99.90;;;;;;5018526;28;20500;-68
2021/12/18 05:10:39;;;;;;;63.33;34.00;;;8.30;99.90;;;;;;5022932;28;20461;-68
2021/12/18 05:13:06;;;;;;;70.93;34.57;;;8.30;99.90;;;;;;5025479;28;20465;-68
2021/12/18 05:15:33;;;;;;;60.33;34.63;;;8.30;99.90;;;;;;5025482;28;21188;-68
2021/12/18 05:18:01;;;;;;;54.33;32.57;;;8.40;99.90;;;;;;5022614;28;20497;-69
2021/12/18 05:20:28;;;;;;;66.37;35.90;;;8.30;99.90;;;;;;5028088;28;20452;-68
2021/12/18 05:22:55;;;;;;;62.33;33.87;;;8.40;99.90;;;;;;5019646;28;20460;-68
2021/12/18 05:25:22;;;;;;;67.57;35.60;;;8.30;99.90;;;;;;5021210;28;21069;-70
2021/12/18 05:27:50;;;;;;;65.70;33.90;;;8.30;99.90;;;;;;5017495;28;20473;-70
2021/12/18 05:30:17;;;;;;;62.50;35.40;;;8.20;99.90;;;;;;5027054;28;20462;-68
2021/12/18 05:32:44;;;;;;;55.57;34.50;;;8.20;99.90;;;;;;5027984;28;20475;-68
2021/12/18 05:35:13;;;;;;;62.43;36.07;;;8.20;99.90;;;;;;5026011;28;20977;-68
2021/12/18 05:37:47;;;;;;;70.07;34.80;;;8.10;99.90;;;;;;5022460;28;20508;-69
2021/12/18 05:40:16;;;;;;;62.33;36.20;;;8.10;99.90;;;;;;5019288;28;20557;-68
2021/12/18 05:42:43;;;;;;;60.70;35.77;;;8.20;99.90;;;;;;5021313;28;20465;-68
2021/12/18 05:45:12;;;;;;;65.57;36.67;;;8.20;99.90;;;;;;5022214;28;20482;-72
2021/12/18 05:47:39;;;;;;;66.03;36.67;;;8.20;99.90;;;;;;5022070;28;20480;-71
2021/12/18 05:50:06;;;;;;;63.07;35.40;;;8.20;99.90;;;;;;5027197;28;20457;-67
2021/12/18 05:52:33;;;;;;;56.67;33.83;;;8.20;99.90;;;;;;5021470;28;20491;-72
2021/12/18 05:55:00;;;;;;;80.23;37.57;;;8.20;99.90;;;;;;5022990;28;20763;-68
2021/12/18 05:57:28;;;;;;;74.73;36.87;;;8.10;99.90;;;;;;5025368;28;20504;-71
2021/12/18 05:59:54;;;;;;;67.07;37.17;;;8.00;99.90;;;;;;5020023;28;20457;-70
2021/12/18 06:02:23;;;;;;;78.00;37.33;;;8.00;99.90;;;;;;5027377;28;20974;-69
2021/12/18 06:04:50;;;;;;;76.57;37.20;;;8.00;99.90;;;;;;5023341;28;20834;-68
2021/12/18 06:07:28;;;;;;;73.00;37.53;;;8.00;99.90;;;;;;5021107;28;20464;-68
2021/12/18 06:09:56;;;;;;;78.00;38.60;;;8.20;99.90;;;;;;5017828;28;20475;-68
2021/12/18 06:12:23;;;;;;;80.20;37.13;;;8.20;99.90;;;;;;5021523;28;20994;-68
2021/12/18 06:14:50;;;;;;;72.73;38.67;;;8.30;99.90;;;;;;5022970;28;20572;-68
2021/12/18 06:17:16;;;;;;;64.30;37.53;;;8.20;99.90;;;;;;5027271;28;20855;-68
2021/12/18 06:19:45;;;;;;;75.60;37.10;;;8.30;99.90;;;;;;5023884;28;20471;-70
2021/12/18 06:22:11;;;;;;;82.33;37.47;;;8.20;99.90;;;;;;5017415;28;21008;-71
2021/12/18 06:24:39;;;;;;;87.20;39.33;;;8.10;99.90;;;;;;5020128;28;20466;-68
2021/12/18 06:27:05;;;;;;;71.40;37.10;;;8.00;99.90;;;;;;5022756;28;20473;-68
2021/12/18 06:29:33;;;;;;;97.97;42.17;;;8.00;99.90;;;;;;5024888;28;20901;-71
2021/12/18 06:32:01;;;;;;;111.87;41.50;;;7.90;99.90;;;;;;5020317;28;20464;-69
2021/12/18 06:34:28;;;;;;;91.07;41.90;;;7.80;99.90;;;;;;5022440;28;20471;-67
2021/12/18 06:36:56;;;;;;;99.30;41.40;;;7.90;99.90;;;;;;5019862;28;20484;-68
2021/12/18 06:39:23;;;;;;;105.23;41.63;;;8.00;99.90;;;;;;5019550;28;20457;-68
2021/12/18 06:41:49;;;;;;;87.40;39.33;;;8.10;99.90;;;;;;5023125;28;20467;-68
2021/12/18 06:44:16;;;;;;;100.47;43.07;;;8.10;99.90;;;;;;5018912;28;20465;-68
2021/12/18 06:46:43;;;;;;;112.20;42.70;;;8.20;99.90;;;;;;5029926;28;20962;-68
2021/12/18 06:49:10;;;;;;;90.80;40.83;;;8.10;99.90;;;;;;5019038;28;20461;-67
2021/12/18 06:51:37;;;;;;;112.00;41.80;;;8.10;99.90;;;;;;5020893;28;20958;-67
2021/12/18 06:54:06;;;;;;;96.07;43.43;;;8.00;99.90;;;;;;5017841;28;20485;-68
2021/12/18 06:56:33;;;;;;;109.43;44.57;;;8.00;99.90;;;;;;5022816;28;20572;-67
2021/12/18 06:59:00;;;;;;;94.80;42.57;;;8.10;99.90;;;;;;5023532;28;20472;-67
2021/12/18 07:01:27;;;;;;;109.73;46.33;;;8.20;99.90;;;;;;5022557;28;20461;-67
2021/12/18 07:03:54;;;;;;;95.23;43.03;;;8.20;99.90;;;;;;5019389;28;20984;-67
2021/12/18 07:06:21;;;;;;;87.30;42.60;;;8.20;99.90;;;;;;5023565;28;20471;-69
2021/12/18 07:08:47;;;;;;;133.63;47.60;;;8.20;99.90;;;;;;5025287;28;20475;-68
2021/12/18 07:11:16;;;;;;;149.37;49.40;;;8.10;99.90;;;;;;5021990;28;20464;-69
2021/12/18 07:13:42;;;;;;;119.83;46.67;;;8.10;99.90;;;;;;5017949;28;20464;-67
2021/12/18 07:16:10;;;;;;;109.83;47.57;;;8.20;99.90;;;;;;5022993;28;20464;-67
2021/12/18 07:18:37;;;;;;;130.77;47.17;;;8.20;99.90;;;;;;5012311;28;20493;-68
2021/12/18 07:21:04;;;;;;;117.87;45.70;;;8.10;99.90;;;;;;5019336;28;20466;-70
2021/12/18 07:23:31;;;;;;;280.80;50.70;;;8.10;99.90;;;;;;5024234;28;20472;-68
2021/12/18 07:25:57;;;;;;;216.83;50.90;;;8.00;99.90;;;;;;5017016;28;20460;-68
2021/12/18 07:28:26;;;;;;;101.10;47.27;;;7.90;99.90;;;;;;5015012;28;20461;-70
2021/12/18 07:30:52;;;;;;;113.20;50.13;;;7.80;99.90;;;;;;5015802;28;20473;-70
2021/12/18 07:33:20;;;;;;;124.53;52.77;;;7.70;99.90;;;;;;5020160;28;20464;-72
2021/12/18 07:35:47;;;;;;;125.93;52.70;;;7.70;99.90;;;;;;5024958;28;20947;-72
2021/12/18 07:38:14;;;;;;;103.10;48.10;;;7.80;99.90;;;;;;5018489;28;20493;-71
2021/12/18 07:40:41;;;;;;;114.40;51.83;;;7.70;99.90;;;;;;5017144;28;20463;-70
2021/12/18 07:43:07;;;;;;;104.23;53.47;;;7.60;99.90;;;;;;5020212;28;20465;-71
2021/12/18 07:45:36;;;;;;;110.10;53.47;;;7.60;99.90;;;;;;5024831;28;20495;-71
2021/12/18 07:48:04;;;;;;;121.07;54.20;;;7.60;99.90;;;;;;5019447;28;20476;-70
2021/12/18 07:50:32;;;;;;;131.97;58.00;;;7.60;99.90;;;;;;5020847;28;20547;-70
2021/12/18 07:52:59;;;;;;;120.17;56.57;;;7.60;99.90;;;;;;5024334;28;20508;-70
2021/12/18 07:55:26;;;;;;;112.33;54.90;;;7.70;99.90;;;;;;5018797;28;20552;-72
2021/12/18 07:57:54;;;;;;;113.57;57.07;;;7.60;99.90;;;;;;5025701;28;20495;-73
2021/12/18 08:00:21;;;;;;;107.27;56.90;;;7.50;99.90;;;;;;5020318;28;20461;-70
2021/12/18 08:02:50;;;;;;;121.20;55.70;;;7.40;99.90;;;;;;5020579;28;20471;-71
2021/12/18 08:05:17;;;;;;;124.33;56.07;;;7.40;99.90;;;;;;5018050;28;20468;-73
2021/12/18 08:07:43;;;;;;;151.53;60.30;;;7.30;99.90;;;;;;5022804;28;21987;-68
2021/12/18 08:10:11;;;;;;;133.10;57.27;;;7.30;99.90;;;;;;5015948;28;20469;-67
2021/12/18 08:12:38;;;;;;;153.23;58.40;;;7.20;99.90;;;;;;5019240;28;20452;-68
2021/12/18 08:15:06;;;;;;;174.57;60.70;;;7.20;99.90;;;;;;5022811;28;20552;-68
2021/12/18 08:17:33;;;;;;;146.20;56.33;;;7.30;99.90;;;;;;5020113;28;20496;-69
2021/12/18 08:20:01;;;;;;;135.70;58.10;;;7.30;99.90;;;;;;5020044;28;20864;-68
2021/12/18 08:22:28;;;;;;;187.53;57.30;;;7.30;99.90;;;;;;5013698;28;20464;-67
2021/12/18 08:24:55;;;;;;;172.80;58.20;;;7.30;99.90;;;;;;5019860;28;20967;-69
2021/12/18 08:27:22;;;;;;;144.50;63.87;;;7.30;99.90;;;;;;5025583;28;20461;-69
2021/12/18 08:29:49;;;;;;;144.47;58.87;;;7.30;99.90;;;;;;5031313;28;20476;-68
2021/12/18 08:32:16;;;;;;;142.43;58.00;;;7.30;99.90;;;;;;5021885;28;20464;-68
2021/12/18 08:34:43;;;;;;;175.23;61.47;;;7.20;99.90;;;;;;5024806;28;20460;-68
2021/12/18 08:37:11;;;;;;;166.67;59.93;;;7.20;99.90;;;;;;5019520;28;20544;-70
2021/12/18 08:39:38;;;;;;;145.07;56.53;;;7.30;99.90;;;;;;5023434;28;20539;-70
2021/12/18 08:42:06;;;;;;;147.63;60.93;;;7.30;99.90;;;;;;5028227;28;20459;-72
2021/12/18 08:44:34;;;;;;;169.73;60.27;;;7.30;99.90;;;;;;5024040;28;20471;-70
2021/12/18 08:47:02;;;;;;;199.07;63.83;;;7.30;99.90;;;;;;5022331;28;20476;-68
2021/12/18 08:49:29;;;;;;;138.10;59.00;;;7.40;99.90;;;;;;5024916;28;20465;-67
2021/12/18 08:51:56;;;;;;;155.17;59.43;;;7.40;99.90;;;;;;5022911;28;20952;-69
2021/12/18 08:54:25;;;;;;;139.27;58.67;;;7.50;99.90;;;;;;5020470;28;20488;-68
2021/12/18 08:56:52;;;;;;;160.70;59.50;;;7.30;99.90;;;;;;5022581;28;20828;-69
2021/12/18 08:59:19;;;;;;;164.40;60.37;;;7.30;99.90;;;;;;5021029;28;20500;-69
2021/12/18 09:01:46;;;;;;;219.27;63.87;;;7.30;99.90;;;;;;5023263;28;20466;-70
2021/12/18 09:04:13;;;;;;;705.07;81.90;;;7.30;99.90;;;;;;5018770;28;20465;-70
2021/12/18 09:06:39;;;;;;;415.90;71.30;;;7.40;99.90;;;;;;5023711;28;20457;-68
2021/12/18 09:09:07;;;;;;;607.70;82.23;;;7.50;99.90;;;;;;5018627;28;20807;-68
2021/12/18 09:11:35;;;;;;;231.70;62.97;;;7.50;99.90;;;;;;5021125;28;21020;-68
2021/12/18 09:14:03;;;;;;;171.97;56.57;;;7.60;99.90;;;;;;5017713;28;20552;-67
2021/12/18 09:16:30;;;;;;;265.17;67.73;;;7.70;99.90;;;;;;5032230;28;20457;-71
2021/12/18 09:18:57;;;;;;;156.50;58.00;;;7.80;99.90;;;;;;5024341;28;20551;-69
2021/12/18 09:21:24;;;;;;;145.53;58.23;;;7.80;99.90;;;;;;5019932;28;20468;-70
2021/12/18 09:23:51;;;;;;;174.97;63.03;;;7.70;99.90;;;;;;5020263;28;20458;-70
2021/12/18 09:26:18;;;;;;;179.37;61.67;;;7.80;99.90;;;;;;5023391;28;20474;-70
2021/12/18 09:28:46;;;;;;;180.60;62.73;;;7.60;99.90;;;;;;5023620;28;20468;-71
2021/12/18 09:31:13;;;;;;;152.10;59.37;;;7.60;99.90;;;;;;5023541;28;20480;-67
2021/12/18 09:33:40;;;;;;;344.50;71.70;;;7.60;99.90;;;;;;5021353;28;20493;-68
2021/12/18 09:36:07;;;;;;;253.27;63.63;;;7.60;99.90;;;;;;5024270;28;20505;-68
2021/12/18 09:38:34;;;;;;;215.13;62.27;;;7.70;99.90;;;;;;5023153;28;20492;-72
2021/12/18 09:41:02;;;;;;;231.77;65.83;;;7.90;99.90;;;;;;5023621;28;20465;-73
2021/12/18 09:43:29;;;;;;;302.43;69.10;;;7.90;99.90;;;;;;5014450;28;20464;-69
2021/12/18 09:46:04;;;;;;;202.83;67.33;;;8.00;99.90;;;;;;5017696;28;20492;-68
2021/12/18 09:48:31;;;;;;;210.30;61.47;;;8.10;99.90;;;;;;5018665;28;20466;-69
2021/12/18 09:50:59;;;;;;;445.93;76.90;;;8.00;99.90;;;;;;5024703;28;20473;-68
2021/12/18 09:53:26;;;;;;;556.27;81.40;;;8.00;99.90;;;;;;5022227;28;20530;-68
2021/12/18 09:55:53;;;;;;;500.43;78.87;;;7.90;99.90;;;;;;5016023;28;20465;-68
2021/12/18 09:58:21;;;;;;;301.60;69.47;;;8.00;99.90;;;;;;5015211;28;20548;-71
2021/12/18 10:00:47;;;;;;;223.83;68.00;;;8.00;99.90;;;;;;5021460;28;20939;-70
2021/12/18 10:03:16;;;;;;;242.87;63.50;;;7.90;99.90;;;;;;5020571;28;20966;-71
2021/12/18 10:05:43;;;;;;;203.53;61.87;;;8.00;99.90;;;;;;5030654;28;20975;-68
2021/12/18 10:08:21;;;;;;;208.63;59.07;;;7.90;99.90;;;;;;5026163;28;20478;-70
2021/12/18 10:11:07;;;;;;;221.40;64.80;;;7.80;99.90;;;;;;5020064;28;20456;-70
2021/12/18 10:13:54;;;;;;;203.67;60.50;;;7.70;99.90;;;;;;5019392;28;20469;-68
2021/12/18 10:16:23;;;;;;;204.30;63.37;;;7.70;99.90;;;;;;5015879;28;20818;-68
2021/12/18 10:18:52;;;;;;;273.03;65.50;;;7.70;99.90;;;;;;5023228;28;20489;-69
2021/12/18 10:21:20;;;;;;;185.17;58.27;;;7.70;99.90;;;;;;5016263;28;20462;-71
2021/12/18 10:23:48;;;;;;;193.87;62.60;;;7.80;99.90;;;;;;5020796;28;20461;-69
2021/12/18 10:26:37;;;;;;;188.33;58.50;;;7.80;99.90;;;;;;5024075;28;20498;-72
2021/12/18 10:29:05;;;;;;;187.63;59.30;;;7.90;99.90;;;;;;5021318;28;20460;-69
2021/12/18 10:31:41;;;;;;;276.30;66.53;;;7.90;99.90;;;;;;5019284;28;20475;-68
2021/12/18 10:34:21;;;;;;;206.17;62.43;;;7.90;99.90;;;;;;5021847;28;20922;-68
2021/12/18 10:37:10;;;;;;;255.87;66.70;;;8.00;99.90;;;;;;5021100;28;20467;-68
2021/12/18 10:39:38;;;;;;;175.27;59.90;;;8.00;99.90;;;;;;5020559;28;20503;-68
2021/12/18 10:42:33;;;;;;;181.07;58.00;;;7.90;99.90;;;;;;5023738;28;20468;-71
2021/12/18 10:45:13;;;;;;;164.63;57.47;;;7.80;99.90;;;;;;4983519;28;20479;-68
2021/12/18 10:48:00;;;;;;;186.23;57.37;;;7.90;99.90;;;;;;5021901;28;20462;-68
2021/12/18 10:50:37;;;;;;;202.57;56.50;;;7.90;99.90;;;;;;5020578;28;20528;-68
2021/12/18 10:53:07;;;;;;;222.73;60.10;;;7.90;99.90;;;;;;5023288;28;21018;-70
2021/12/18 10:55:41;;;;;;;151.53;54.53;;;8.00;99.90;;;;;;5022910;28;20472;-70
2021/12/18 10:58:10;;;;;;;204.97;57.10;;;7.90;99.90;;;;;;5019139;28;20472;-68
2021/12/18 11:00:42;;;;;;;155.23;58.70;;;7.90;99.90;;;;;;5016168;28;20866;-68
2021/12/18 11:03:25;;;;;;;174.93;56.40;;;8.00;99.90;;;;;;5022100;28;20465;-68
2021/12/18 11:06:22;;;;;;;160.17;53.47;;;8.20;99.90;;;;;;5022206;28;20453;-71
2021/12/18 11:09:09;;;;;;;124.07;51.20;;;8.10;99.90;;;;;;5022147;28;20488;-68
2021/12/18 11:14:34;;;;;;;100.50;49.47;;;8.20;99.90;;;;;;5025847;28;20595;-68
2021/12/18 11:17:03;;;;;;;123.20;49.00;;;8.30;99.90;;;;;;5027241;28;20452;-70
2021/12/18 11:19:32;;;;;;;135.30;48.47;;;8.10;99.90;;;;;;5017899;28;20844;-70
2021/12/18 11:22:04;;;;;;;131.77;53.67;;;8.00;99.90;;;;;;5020834;28;20569;-71
2021/12/18 11:24:33;;;;;;;129.13;51.93;;;8.00;99.90;;;;;;5015859;28;20808;-74
2021/12/18 11:27:02;;;;;;;92.27;47.70;;;8.10;99.90;;;;;;5020582;28;20472;-73
2021/12/18 11:29:35;;;;;;;111.27;50.13;;;8.10;99.90;;;;;;5021694;28;20460;-71
2021/12/18 11:32:03;;;;;;;103.60;45.73;;;8.20;99.90;;;;;;5029965;28;20475;-71
2021/12/18 11:34:30;;;;;;;109.93;48.20;;;8.20;99.90;;;;;;5023992;28;20467;-71
2021/12/18 11:36:59;;;;;;;102.80;48.27;;;8.20;99.90;;;;;;5017093;28;20806;-71
2021/12/18 11:39:31;;;;;;;107.40;48.00;;;8.10;99.90;;;;;;5022261;28;20718;-74
2021/12/18 11:41:58;;;;;;;107.60;48.07;;;7.90;99.90;;;;;;5018972;28;20461;-73
2021/12/18 11:44:31;;;;;;;119.77;50.87;;;8.00;99.90;;;;;;5023497;28;20465;-71
2021/12/18 11:46:59;;;;;;;113.07;53.87;;;8.10;99.90;;;;;;5024849;28;20465;-70
2021/12/18 11:49:42;;;;;;;111.27;51.90;;;8.20;99.90;;;;;;5020820;28;20505;-69
2021/12/18 11:52:09;;;;;;;110.47;49.93;;;8.20;99.90;;;;;;5017805;28;20473;-71
2021/12/18 11:54:43;;;;;;;91.27;47.60;;;8.30;99.90;;;;;;5015511;28;20518;-68
2021/12/18 11:57:11;;;;;;;81.17;45.93;;;8.30;99.90;;;;;;5021645;28;20563;-68
2021/12/18 11:59:40;;;;;;;116.87;47.17;;;8.30;99.90;;;;;;5017799;28;20500;-70
2021/12/18 12:02:08;;;;;;;93.33;46.17;;;8.20;99.90;;;;;;5023071;28;20496;-71
2021/12/18 12:05:00;;;;;;;108.13;47.70;;;8.00;99.90;;;;;;5020632;28;20560;-69
2021/12/18 12:07:28;;;;;;;82.17;43.83;;;8.10;99.90;;;;;;5031295;28;20475;-69
2021/12/18 12:10:21;;;;;;;84.37;44.73;;;8.20;99.90;;;;;;5024525;28;20467;-70
2021/12/18 12:12:54;;;;;;;104.30;47.20;;;8.00;99.90;;;;;;5019398;28;20463;-72
2021/12/18 12:15:23;;;;;;;91.23;46.33;;;7.80;99.90;;;;;;5022840;28;20469;-71
2021/12/18 12:18:01;;;;;;;106.23;47.93;;;7.80;99.90;;;;;;5026308;28;20461;-71
2021/12/18 12:20:40;;;;;;;95.27;49.00;;;7.70;99.90;;;;;;5025676;28;20460;-68
2021/12/18 12:23:09;;;;;;;97.07;46.20;;;8.00;99.90;;;;;;5026310;28;20461;-68
2021/12/18 12:25:47;;;;;;;100.70;47.50;;;8.10;99.90;;;;;;5022378;28;20473;-72
2021/12/18 12:28:16;;;;;;;93.20;48.87;;;8.20;99.90;;;;;;5023635;28;20552;-68
2021/12/18 12:30:46;;;;;;;84.17;50.03;;;8.10;99.90;;;;;;5026058;28;20464;-68
2021/12/18 12:33:23;;;;;;;91.80;50.87;;;8.20;99.90;;;;;;5019854;28;20548;-69
2021/12/18 12:35:58;;;;;;;79.33;48.77;;;8.30;99.90;;;;;;5019713;28;20469;-68
2021/12/18 12:38:27;;;;;;;73.50;49.73;;;8.40;99.90;;;;;;5020478;28;21003;-68
2021/12/18 12:40:57;;;;;;;75.97;47.73;;;8.40;99.90;;;;;;5029231;28;20471;-69
2021/12/18 12:43:28;;;;;;;108.33;50.80;;;8.40;99.90;;;;;;5020899;28;20501;-70
2021/12/18 12:45:59;;;;;;;91.83;46.30;;;8.40;99.90;;;;;;5023661;28;20852;-71
2021/12/18 12:48:46;;;;;;;93.53;52.53;;;8.30;99.90;;;;;;5025487;28;20972;-69
2021/12/18 12:51:15;;;;;;;76.87;47.17;;;8.40;99.90;;;;;;5021860;28;20476;-68
2021/12/18 12:54:00;;;;;;;75.23;45.90;;;8.40;99.90;;;;;;5021796;28;20488;-68
2021/12/18 12:56:27;;;;;;;87.93;47.80;;;8.40;99.90;;;;;;5028655;28;21015;-69
2021/12/18 12:59:24;;;;;;;88.07;45.17;;;8.10;99.90;;;;;;5026917;28;20998;-68
2021/12/18 13:01:53;;;;;;;76.30;42.40;;;8.00;99.90;;;;;;5030664;28;20469;-67
2021/12/18 13:04:20;;;;;;;73.67;45.33;;;8.00;99.90;;;;;;5022023;28;20452;-70
2021/12/18 13:06:50;;;;;;;71.10;44.27;;;8.20;99.90;;;;;;5025162;28;20463;-68
2021/12/18 13:09:17;;;;;;;68.90;47.83;;;8.40;99.90;;;;;;5023576;28;20818;-70
2021/12/18 13:11:43;;;;;;;78.33;46.40;;;8.40;99.90;;;;;;5022606;28;20457;-68
2021/12/18 13:14:14;;;;;;;69.40;45.27;;;8.50;99.90;;;;;;5023088;28;20930;-68
2021/12/18 13:16:41;;;;;;;61.40;44.97;;;8.50;99.90;;;;;;5028611;28;20453;-71
2021/12/18 13:19:08;;;;;;;72.00;44.23;;;8.40;99.90;;;;;;5021833;28;20840;-70
2021/12/18 13:21:39;;;;;;;77.20;46.57;;;8.40;99.90;;;;;;5018054;28;20462;-67
2021/12/18 13:24:09;;;;;;;72.07;44.73;;;8.40;99.90;;;;;;5021047;28;20889;-71